createdAt,value
2018-07-03T00:02:45.479Z,54.20
2018-07-03T00:05:12.840Z,54.70
2018-07-03T00:07:40.113Z,52.30
2018-07-03T00:10:08.606Z,53.90
2018-07-03T00:17:30.660Z,55.00
2018-07-03T00:19:57.951Z,54.60
2018-07-03T00:22:25.251Z,54.60
2018-07-03T00:24:52.604Z,55.50
2018-07-03T00:27:20.871Z,55.10
2018-07-03T00:29:48.142Z,56.00
2018-07-03T00:34:42.742Z,57.50
2018-07-03T00:37:11.895Z,56.40
2018-07-03T00:42:06.602Z,57.90
2018-07-03T00:44:33.924Z,57.90
2018-07-03T00:47:01.195Z,57.10
2018-07-03T00:49:29.043Z,58.60
2018-07-03T00:52:07.566Z,57.70
2018-07-03T00:57:03.252Z,57.20
2018-07-03T00:59:30.519Z,56.80
2018-07-03T01:02:00.581Z,55.20
2018-07-03T01:04:28.650Z,53.90
2018-07-03T01:06:55.914Z,54.40
2018-07-03T01:09:23.528Z,53.80
2018-07-03T01:11:50.911Z,54.00
2018-07-03T01:14:18.165Z,54.30
2018-07-03T01:16:45.436Z,55.60
2018-07-03T01:19:12.971Z,56.30
2018-07-03T01:21:41.349Z,57.20
2018-07-03T01:24:08.602Z,58.20
2018-07-03T01:26:43.196Z,59.40
2018-07-03T01:29:14.299Z,59.20
2018-07-03T01:31:43.851Z,59.40
2018-07-03T01:34:11.111Z,59.30
2018-07-03T01:36:38.378Z,59.00
2018-07-03T01:39:05.923Z,61.90
2018-07-03T01:41:33.203Z,61.20
2018-07-03T01:44:00.462Z,61.20
2018-07-03T01:46:27.707Z,61.60
2018-07-03T01:48:54.938Z,61.60
2018-07-03T01:51:22.179Z,60.30
2018-07-03T01:53:49.446Z,57.70
2018-07-03T01:56:16.685Z,56.70
2018-07-03T01:58:43.927Z,55.60
2018-07-03T02:01:11.179Z,56.40
2018-07-03T02:06:05.675Z,56.00
2018-07-03T02:08:32.977Z,56.00
2018-07-03T02:11:00.265Z,56.00
2018-07-03T02:13:27.819Z,56.20
2018-07-03T02:15:55.160Z,59.10
2018-07-03T02:18:22.406Z,60.60
2018-07-03T02:20:49.674Z,59.30
2018-07-03T02:23:16.951Z,57.70
2018-07-03T02:25:44.198Z,57.20
2018-07-03T02:28:11.455Z,57.50
2018-07-03T02:30:38.754Z,57.00
2018-07-03T02:33:06.042Z,57.00
2018-07-03T02:35:33.306Z,57.10
2018-07-03T02:38:00.539Z,56.60
2018-07-03T02:40:27.827Z,57.10
2018-07-03T02:42:55.094Z,57.50
2018-07-03T02:45:22.399Z,58.00
2018-07-03T02:47:49.647Z,58.70
2018-07-03T02:50:16.923Z,58.90
2018-07-03T02:52:44.143Z,58.40
2018-07-03T02:55:11.405Z,59.20
2018-07-03T02:57:38.643Z,59.50
2018-07-03T03:00:06.384Z,58.90
2018-07-03T03:02:33.803Z,58.80
2018-07-03T03:05:01.054Z,58.90
2018-07-03T03:07:28.323Z,60.20
2018-07-03T03:09:55.594Z,59.70
2018-07-03T03:12:22.882Z,59.50
2018-07-03T03:17:17.790Z,63.30
2018-07-03T03:19:45.040Z,62.40
2018-07-03T03:22:12.330Z,61.40
2018-07-03T03:24:39.575Z,61.60
2018-07-03T03:27:06.862Z,60.50
2018-07-03T03:29:34.123Z,60.50
2018-07-03T03:32:01.395Z,60.80
2018-07-03T03:34:28.643Z,61.70
2018-07-03T03:36:55.907Z,61.00
2018-07-03T03:39:23.190Z,62.10
2018-07-03T03:41:50.602Z,61.90
2018-07-03T03:44:17.849Z,62.20
2018-07-03T03:49:12.559Z,61.80
2018-07-03T03:51:39.850Z,61.80
2018-07-03T03:56:34.511Z,61.70
2018-07-03T03:59:01.814Z,61.50
2018-07-03T04:01:29.112Z,61.40
2018-07-03T04:06:23.642Z,60.90
2018-07-03T04:08:50.895Z,60.80
2018-07-03T04:11:18.170Z,60.90
2018-07-03T04:18:40.014Z,60.30
2018-07-03T04:21:07.746Z,60.00
2018-07-03T04:28:31.274Z,59.80
2018-07-03T04:30:58.596Z,59.10
2018-07-03T04:33:26.014Z,59.70
2018-07-03T04:40:47.860Z,59.20
2018-07-03T04:43:15.188Z,58.20
2018-07-03T04:45:43.082Z,58.60
2018-07-03T04:48:10.426Z,58.30
2018-07-03T04:53:04.914Z,58.10
2018-07-03T04:55:32.180Z,58.10
2018-07-03T04:58:10.398Z,58.40
2018-07-03T05:00:37.675Z,58.30
2018-07-03T05:03:05.171Z,58.10
2018-07-03T05:05:32.488Z,57.50
2018-07-03T05:07:59.735Z,57.60
2018-07-03T05:10:26.996Z,57.90
2018-07-03T05:12:54.295Z,57.80
2018-07-03T05:15:21.570Z,57.80
2018-07-03T05:17:48.971Z,57.50
2018-07-03T05:20:16.334Z,57.10
2018-07-03T05:22:43.630Z,56.40
2018-07-03T05:25:10.904Z,56.00
2018-07-03T05:27:38.185Z,55.60
2018-07-03T05:30:05.994Z,54.20
2018-07-03T05:32:33.255Z,54.00
2018-07-03T05:35:00.511Z,54.00
2018-07-03T05:37:28.171Z,53.80
2018-07-03T05:39:55.424Z,52.90
2018-07-03T05:42:22.755Z,51.90
2018-07-03T05:44:49.990Z,51.60
2018-07-03T05:47:17.418Z,51.50
2018-07-03T05:49:44.590Z,51.70
2018-07-03T05:52:11.944Z,50.10
2018-07-03T05:54:39.198Z,50.30
2018-07-03T05:57:09.112Z,48.50
2018-07-03T05:59:40.827Z,48.20
2018-07-03T06:02:08.118Z,48.10
2018-07-03T06:04:35.355Z,47.50
2018-07-03T06:07:02.635Z,46.50
2018-07-03T06:09:30.155Z,46.20
2018-07-03T06:11:57.403Z,49.30
2018-07-03T06:14:25.630Z,48.80
2018-07-03T06:16:54.675Z,48.50
2018-07-03T06:19:22.714Z,50.00
2018-07-03T06:21:50.475Z,45.70
2018-07-03T06:26:45.179Z,45.90
2018-07-03T06:29:12.472Z,47.60
2018-07-03T06:34:18.910Z,46.00
2018-07-03T06:36:46.742Z,44.80
2018-07-03T06:39:14.370Z,44.70
2018-07-03T06:41:41.636Z,42.50
2018-07-03T06:44:09.283Z,42.70
2018-07-03T06:46:36.534Z,42.90
2018-07-03T06:49:03.852Z,43.20
2018-07-03T06:51:31.187Z,41.80
2018-07-03T06:53:58.971Z,42.10
2018-07-03T06:56:26.379Z,42.80
2018-07-03T06:58:53.798Z,43.10
2018-07-03T07:03:48.319Z,39.70
2018-07-03T07:06:15.898Z,40.30
2018-07-03T07:11:10.512Z,38.80
2018-07-03T07:13:37.835Z,37.50
2018-07-03T07:16:05.103Z,37.50
2018-07-03T07:18:32.350Z,37.30
2018-07-03T07:20:59.754Z,38.20
2018-07-03T07:23:27.038Z,36.60
2018-07-03T07:25:54.314Z,36.30
2018-07-03T07:28:21.683Z,36.20
2018-07-03T07:33:16.525Z,35.90
2018-07-03T07:38:11.122Z,35.20
2018-07-03T07:40:38.395Z,35.40
2018-07-03T07:43:05.664Z,34.50
2018-07-03T07:45:32.928Z,34.90
2018-07-03T07:48:00.188Z,34.50
2018-07-03T07:50:27.440Z,34.20
2018-07-03T07:52:54.692Z,34.40
2018-07-03T07:55:21.943Z,32.10
2018-07-03T07:57:49.216Z,32.50
2018-07-03T08:00:16.536Z,31.30
2018-07-03T08:02:43.791Z,33.00
2018-07-03T08:05:11.087Z,30.90
2018-07-03T08:10:05.606Z,29.30
2018-07-03T08:15:00.106Z,29.90
2018-07-03T08:17:27.367Z,27.90
2018-07-03T08:19:54.752Z,26.70
2018-07-03T08:22:22.026Z,27.00
2018-07-03T08:24:49.271Z,26.60
2018-07-03T08:27:16.591Z,27.20
2018-07-03T08:29:43.938Z,26.20
2018-07-03T08:34:38.812Z,25.70
2018-07-03T08:37:06.107Z,23.90
2018-07-03T08:39:33.384Z,23.90
2018-07-03T08:42:01.002Z,23.90
2018-07-03T08:44:28.247Z,24.10
2018-07-03T08:49:23.659Z,24.50
2018-07-03T08:51:51.087Z,23.80
2018-07-03T08:54:19.436Z,21.30
2018-07-03T08:56:47.367Z,21.70
2018-07-03T08:59:14.682Z,22.30
2018-07-03T09:01:41.991Z,22.90
2018-07-03T09:04:09.268Z,21.90
2018-07-03T09:06:36.527Z,22.10
2018-07-03T09:09:06.700Z,22.00
2018-07-03T09:11:34.740Z,21.00
2018-07-03T09:14:02.108Z,20.00
2018-07-03T09:16:29.363Z,18.50
2018-07-03T09:21:23.875Z,19.60
2018-07-03T09:23:51.132Z,18.40
2018-07-03T09:26:18.387Z,19.00
2018-07-03T09:28:45.654Z,19.00
2018-07-03T09:31:13.623Z,19.10
2018-07-03T09:33:40.906Z,19.20
2018-07-03T09:36:08.159Z,18.60
2018-07-03T09:38:35.426Z,18.70
2018-07-03T09:41:02.706Z,18.40
2018-07-03T09:43:29.958Z,18.10
2018-07-03T09:45:57.994Z,17.50
2018-07-03T09:48:25.262Z,17.60
2018-07-03T09:50:52.535Z,17.30
2018-07-03T09:53:19.775Z,17.50
2018-07-03T09:55:47.054Z,18.20
2018-07-03T09:58:14.325Z,18.90
2018-07-03T10:00:47.232Z,17.20
2018-07-03T10:03:14.599Z,16.20
2018-07-03T10:05:41.883Z,15.60
2018-07-03T10:08:09.138Z,16.00
2018-07-03T10:10:36.506Z,17.60
2018-07-03T10:13:03.831Z,15.80
2018-07-03T10:15:31.071Z,15.60
2018-07-03T10:17:58.327Z,15.20
2018-07-03T10:20:25.596Z,15.00
2018-07-03T10:22:52.910Z,14.50
2018-07-03T10:25:20.259Z,14.70
2018-07-03T10:30:14.790Z,15.00
2018-07-03T10:35:09.346Z,14.40
2018-07-03T10:37:36.600Z,14.40
2018-07-03T10:40:04.224Z,14.40
2018-07-03T10:42:31.515Z,14.30
2018-07-03T10:44:58.782Z,14.00
2018-07-03T10:49:53.330Z,14.40
2018-07-03T10:54:47.874Z,14.80
2018-07-03T10:57:15.154Z,13.60
2018-07-03T10:59:42.408Z,13.60
2018-07-03T11:02:09.735Z,13.70
2018-07-03T11:04:36.970Z,14.60
2018-07-03T11:07:04.749Z,14.40
2018-07-03T11:09:32.007Z,14.40
2018-07-03T11:11:59.274Z,12.90
2018-07-03T11:14:26.534Z,12.70
2018-07-03T11:17:06.083Z,12.90
2018-07-03T11:22:00.628Z,14.00
2018-07-03T11:24:27.932Z,13.30
2018-07-03T11:26:55.653Z,12.20
2018-07-03T11:29:22.918Z,13.50
2018-07-03T11:31:50.364Z,13.30
2018-07-03T11:34:17.654Z,12.40
2018-07-03T11:36:45.210Z,12.30
2018-07-03T11:39:12.491Z,12.70
2018-07-03T11:44:07.048Z,12.60
2018-07-03T11:46:34.481Z,11.90
2018-07-03T11:49:01.971Z,12.10
2018-07-03T11:51:29.270Z,13.00
2018-07-03T11:53:56.739Z,12.90
2018-07-03T11:56:24.034Z,13.00
2018-07-03T12:01:22.122Z,13.70
2018-07-03T12:03:49.458Z,14.10
2018-07-03T12:06:16.772Z,13.70
2018-07-03T12:08:44.045Z,14.00
2018-07-03T12:11:11.386Z,14.20
2018-07-03T12:13:38.664Z,15.90
2018-07-03T12:16:05.938Z,15.50
2018-07-03T12:21:06.211Z,16.70
2018-07-03T12:26:01.087Z,17.80
2018-07-03T12:28:28.463Z,18.20
2018-07-03T12:30:55.779Z,18.60
2018-07-03T12:33:23.051Z,18.60
2018-07-03T12:38:17.558Z,19.30
2018-07-03T12:40:44.836Z,19.30
2018-07-03T12:43:12.119Z,19.40
2018-07-03T12:48:06.651Z,19.40
2018-07-03T12:50:33.958Z,19.40
2018-07-03T12:53:01.203Z,21.30
2018-07-03T12:55:28.531Z,22.40
2018-07-03T12:57:55.762Z,21.10
2018-07-03T13:00:23.037Z,21.40
2018-07-03T13:02:50.387Z,21.30
2018-07-03T13:05:17.778Z,21.90
2018-07-03T13:07:45.057Z,21.10
2018-07-03T13:10:12.412Z,20.30
2018-07-03T13:15:32.706Z,20.60
2018-07-03T13:18:04.548Z,20.50
2018-07-03T13:22:59.727Z,20.70
2018-07-03T13:25:27.166Z,21.20
2018-07-03T13:27:54.554Z,20.80
2018-07-03T13:30:21.868Z,21.00
2018-07-03T13:32:49.168Z,19.00
2018-07-03T13:35:16.934Z,19.90
2018-07-03T13:37:44.212Z,20.20
2018-07-03T13:40:11.955Z,21.70
2018-07-03T13:42:39.208Z,20.70
2018-07-03T13:45:06.522Z,21.70
2018-07-03T13:47:33.792Z,21.00
2018-07-03T13:50:01.069Z,21.40
2018-07-03T13:52:28.427Z,20.00
2018-07-03T13:57:23.027Z,21.30
2018-07-03T13:59:50.270Z,20.30
2018-07-03T14:02:17.579Z,19.40
2018-07-03T14:04:44.855Z,20.40
2018-07-03T14:07:12.268Z,21.10
2018-07-03T14:09:39.520Z,20.60
2018-07-03T14:12:06.832Z,20.60
2018-07-03T14:17:01.399Z,19.60
2018-07-03T14:19:28.671Z,19.80
2018-07-03T14:21:56.087Z,21.10
2018-07-03T14:24:23.476Z,21.30
2018-07-03T14:26:50.902Z,21.00
2018-07-03T14:29:18.192Z,19.80
2018-07-03T14:31:45.503Z,19.20
2018-07-03T14:34:12.787Z,20.20
2018-07-03T14:36:40.060Z,20.20
2018-07-03T14:39:09.451Z,20.00
2018-07-03T14:41:36.706Z,19.50
2018-07-03T14:44:04.115Z,21.20
2018-07-03T14:46:31.435Z,19.70
2018-07-03T14:48:58.764Z,20.60
2018-07-03T14:53:53.660Z,20.50
2018-07-03T14:56:20.961Z,20.00
2018-07-03T14:58:48.237Z,21.00
2018-07-03T15:03:42.808Z,21.40
2018-07-03T15:06:10.144Z,20.40
2018-07-03T15:08:38.218Z,20.60
2018-07-03T15:11:05.998Z,21.60
2018-07-03T15:13:33.332Z,21.50
2018-07-03T15:16:00.639Z,20.20
2018-07-03T15:21:00.838Z,21.40
2018-07-03T15:23:28.123Z,21.40
2018-07-03T15:25:55.467Z,20.30
2018-07-03T15:28:22.690Z,19.70
2018-07-03T15:33:17.303Z,20.90
2018-07-03T15:35:44.628Z,20.50
2018-07-03T15:38:11.977Z,21.00
2018-07-03T15:40:39.395Z,20.30
2018-07-03T15:43:06.699Z,20.40
2018-07-03T15:45:34.104Z,19.90
2018-07-03T15:48:01.403Z,20.80
2018-07-03T15:50:28.672Z,20.40
2018-07-03T15:52:55.953Z,20.50
2018-07-03T15:55:23.272Z,21.40
2018-07-03T15:57:50.592Z,21.90
2018-07-03T16:02:55.467Z,21.40
2018-07-03T16:08:45.763Z,20.60
2018-07-03T16:11:13.073Z,21.30
2018-07-03T16:13:40.389Z,21.20
2018-07-03T16:16:07.703Z,20.60
2018-07-03T16:21:02.335Z,20.20
2018-07-03T16:23:29.600Z,20.10
2018-07-03T16:28:24.182Z,19.90
2018-07-03T16:30:51.491Z,21.00
2018-07-03T16:33:18.901Z,21.50
2018-07-03T16:35:46.159Z,21.30
2018-07-03T16:38:13.410Z,21.10
2018-07-03T16:40:41.349Z,21.20
2018-07-03T16:43:08.698Z,21.80
2018-07-03T16:45:36.033Z,22.50
2018-07-03T16:48:03.277Z,19.50
2018-07-03T16:52:57.847Z,20.60
2018-07-03T16:55:25.122Z,21.20
2018-07-03T16:57:52.451Z,20.10
2018-07-03T17:00:22.618Z,20.10
2018-07-03T17:02:49.938Z,20.60
2018-07-03T17:05:17.225Z,21.70
2018-07-03T17:07:44.502Z,21.00
2018-07-03T17:10:11.788Z,22.50
2018-07-03T17:12:39.191Z,21.50
2018-07-03T17:15:06.536Z,21.50
2018-07-03T17:17:33.839Z,21.00
2018-07-03T17:24:55.991Z,21.50
2018-07-03T17:27:23.338Z,21.30
2018-07-03T17:29:50.630Z,21.50
2018-07-03T17:32:19.408Z,20.60
2018-07-03T17:34:46.705Z,20.70
2018-07-03T17:37:13.989Z,21.10
2018-07-03T17:39:52.630Z,21.60
2018-07-03T17:42:31.533Z,21.20
2018-07-03T17:45:38.155Z,20.30
2018-07-03T17:48:06.626Z,20.40
2018-07-03T17:50:34.371Z,20.80
2018-07-03T17:53:01.969Z,21.10
2018-07-03T17:55:29.391Z,21.60
2018-07-03T18:00:24.916Z,21.60
2018-07-03T18:02:52.388Z,21.70
2018-07-03T18:05:19.700Z,21.70
2018-07-03T18:07:47.002Z,21.80
2018-07-03T18:10:14.271Z,22.60
2018-07-03T18:12:42.303Z,22.30
2018-07-03T18:15:09.543Z,22.90
2018-07-03T18:17:36.810Z,22.40
2018-07-03T18:20:04.789Z,22.60
2018-07-03T18:22:32.059Z,22.80
2018-07-03T18:24:59.323Z,23.20
2018-07-03T18:27:26.575Z,23.00
2018-07-03T18:29:54.092Z,22.80
2018-07-03T18:32:21.150Z,23.40
2018-07-03T18:34:48.444Z,23.90
2018-07-03T18:37:15.759Z,24.30
2018-07-03T18:42:10.343Z,23.20
2018-07-03T18:44:37.865Z,23.40
2018-07-03T18:49:32.407Z,25.60
2018-07-03T18:51:59.642Z,24.70
2018-07-03T18:54:27.074Z,26.00
2018-07-03T18:56:54.351Z,26.40
2018-07-03T18:59:21.683Z,26.80
2018-07-03T19:01:49.036Z,27.70
2018-07-03T19:04:16.404Z,28.30
2018-07-03T19:06:43.750Z,27.40
2018-07-03T19:09:11.054Z,27.20
2018-07-03T19:11:40.438Z,27.70
2018-07-03T19:14:07.776Z,28.10
2018-07-03T19:16:35.059Z,28.90
2018-07-03T19:19:02.355Z,28.70
2018-07-03T19:21:29.652Z,28.50
2018-07-03T19:23:56.951Z,29.70
2018-07-03T19:26:24.230Z,30.00
2018-07-03T19:28:51.505Z,30.30
2018-07-03T19:33:46.032Z,31.60
2018-07-03T19:36:13.329Z,31.40
2018-07-03T19:38:40.566Z,31.80
2018-07-03T19:43:36.640Z,31.10
2018-07-03T19:50:59.141Z,31.10
2018-07-03T19:53:26.427Z,31.60
2018-07-03T19:55:55.046Z,33.10
2018-07-03T19:58:22.476Z,33.50
2018-07-03T20:00:50.829Z,34.20
2018-07-03T20:03:18.124Z,35.20
2018-07-03T20:05:45.530Z,36.50
2018-07-03T20:08:12.980Z,36.10
2018-07-03T20:13:09.712Z,34.50
2018-07-03T20:20:32.418Z,38.80
2018-07-03T20:22:59.712Z,39.30
2018-07-03T20:25:27.034Z,39.00
2018-07-03T20:27:54.377Z,39.80
2018-07-03T20:30:21.676Z,40.30
2018-07-03T20:32:48.933Z,41.00
2018-07-03T20:35:16.866Z,40.60
2018-07-03T20:38:09.405Z,40.80
2018-07-03T20:41:02.179Z,41.30
2018-07-03T20:43:30.824Z,39.80
2018-07-03T20:45:58.151Z,39.10
2018-07-03T20:48:26.008Z,39.50
2018-07-03T20:50:53.480Z,40.70
2018-07-03T20:53:20.776Z,43.40
2018-07-03T20:55:48.266Z,43.50
2018-07-03T20:58:15.575Z,42.20
2018-07-03T21:00:42.909Z,42.70
2018-07-03T21:03:10.223Z,44.00
2018-07-03T21:05:37.573Z,43.40
2018-07-03T21:08:05.116Z,42.10
2018-07-03T21:10:32.421Z,42.80
2018-07-03T21:12:59.687Z,42.60
2018-07-03T21:15:26.983Z,42.90
2018-07-03T21:17:54.252Z,44.00
2018-07-03T21:20:21.729Z,44.60
2018-07-03T21:22:49.057Z,44.10
2018-07-03T21:25:16.301Z,43.70
2018-07-03T21:27:43.762Z,43.00
2018-07-03T21:30:11.059Z,43.60
2018-07-03T21:32:38.353Z,44.70
2018-07-03T21:35:05.611Z,44.80
2018-07-03T21:37:32.875Z,45.10
2018-07-03T21:40:00.175Z,45.10
2018-07-03T21:42:27.451Z,45.00
2018-07-03T21:44:54.723Z,45.00
2018-07-03T21:47:21.979Z,45.10
2018-07-03T21:49:49.216Z,44.80
2018-07-03T21:52:16.490Z,44.20
2018-07-03T21:57:10.988Z,45.50
2018-07-03T21:59:38.235Z,46.00
2018-07-03T22:02:05.530Z,46.40
2018-07-03T22:04:33.106Z,46.80
2018-07-03T22:07:00.361Z,46.90
2018-07-03T22:09:27.616Z,46.90
2018-07-03T22:11:54.897Z,46.80
2018-07-03T22:14:22.142Z,46.50
2018-07-03T22:16:49.431Z,46.70
2018-07-03T22:19:16.685Z,46.80
2018-07-03T22:21:43.989Z,47.00
2018-07-03T22:24:11.191Z,47.40
2018-07-03T22:26:38.509Z,47.70
2018-07-03T22:31:33.027Z,48.00
2018-07-03T22:34:00.287Z,48.00
2018-07-03T22:36:27.551Z,48.20
2018-07-03T22:38:54.898Z,48.40
2018-07-03T22:43:49.380Z,48.80
2018-07-03T22:46:16.647Z,49.00
2018-07-03T22:48:43.900Z,48.30
2018-07-03T22:53:38.419Z,49.50
2018-07-03T22:56:05.694Z,49.90
2018-07-03T22:58:32.952Z,50.10
2018-07-03T23:01:00.214Z,50.60
2018-07-03T23:03:27.502Z,51.60
2018-07-03T23:05:54.766Z,51.90
2018-07-03T23:08:22.175Z,52.00
2018-07-03T23:10:49.413Z,51.90
2018-07-03T23:13:16.914Z,52.10
2018-07-03T23:15:44.174Z,52.10
2018-07-03T23:18:11.500Z,52.10
2018-07-03T23:20:38.784Z,52.10
2018-07-03T23:23:06.219Z,51.80
2018-07-03T23:25:33.470Z,52.50
2018-07-03T23:28:00.732Z,52.00
2018-07-03T23:30:28.102Z,52.50
2018-07-03T23:32:55.343Z,52.50
2018-07-03T23:35:22.759Z,52.80
2018-07-03T23:40:17.211Z,53.40
2018-07-03T23:42:44.439Z,53.80
2018-07-03T23:45:11.663Z,53.90
2018-07-03T23:47:50.396Z,54.10
2018-07-03T23:50:29.037Z,54.10
2018-07-03T23:53:07.949Z,54.20
2018-07-03T23:55:46.851Z,54.40
2018-07-03T23:58:25.647Z,54.20
